Nikolaevsk, Alaska
Current Conditions -  °F | °C
As of 5:53 PM on Wednesday 26 Nov 2014 (Local Time) from PAHO Reporting Station
Clear Clear  
Wind Chill: 31°   Ceiling: Unl
Heat Index: 31°   Visibility: 10mi
Dew Point: 26°   Wind: 3mph
Humidity: 82%   Direction: 40°NE
Pressure: 30.27"   Gusts: NA
Location:  59.8183°N, 151.638°W
Report Text: PAHO 270253Z AUTO 04003KT 10SM CLR M01/M03 A3027 RMK AO2 SLP252 T10061033 58005 TSNO
Loading
Personal Weather Stations






























Interactive Weather Map New forecast layout! Learn more

10-Day Weather Forecast

Advertisements
Track Severe Weather on mobile